Nearby METAR Reports

 

NZAA - Auckland Intl Ar, New Zealand
Distance from station: SW 18km
Updated: 01/07/2022 20:00
Overcast
Overcast
 Wind from SW
Wind: SW 9 km/h
Temperature: 12°C
Dew Point: 9°C
Humidity: 82%
Barometer: 1018 hPa
Clouds: Overcast
Visibility: 10 km
Cloud details: Overcast 1829 m
2022/07/01 08:00 NZAA 010800Z AUTO 23005KT 9999 OVC060/// 12/09 Q1018 NOSIG
NZWP - Whenuapai (nz-Af, New Zealand
Distance from station: WNW 30km
Updated: 09/06/2022 13:00
NOT Current
Nearby showers, Partly cloudy
Nearby showers, Partly cloudy
 Wind from NW
Wind: NW 17 km/h
Temperature: 17°C
Dew Point: 14°C
Humidity: 83%
Barometer: 1001 hPa
Summary: Nearby Showers
Clouds: Partly cloudy
Cloud details: Few Clouds 518 m
Partly cloudy 823 m
2022/06/09 01:00 NZWP 090100Z 32009KT 290V010 20KM VCSH FEW017 SCT027 17/14 Q1001 NOSIG
 
NZWN - Wellington Intl, New Zealand
Distance from station: S 493km
Updated: 01/07/2022 20:00
Clear
Clear
 Wind from N
Wind: N 11 km/h
Temperature: 9°C
Wind Chill: 7°C
Dew Point: 4°C
Humidity: 71%
Barometer: 1014 hPa
Clouds: Clear
Visibility: 10 km
2022/07/01 08:00 NZWN 010800Z AUTO 36006KT 9999 NCD 09/04 Q1014 NOSIG
NZCH - Christchurch Int, New Zealand
Distance from station: SSW 759km
Updated: 01/07/2022 20:00
Clear
Clear
 Wind from NE
Wind: NE 4 km/h
Temperature: 2°C
Dew Point: 0°C
Humidity: 87%
Barometer: 1011 hPa
Clouds: Clear
Visibility: 10 km
2022/07/01 08:00 NZCH 010800Z AUTO 05002KT 9999 NCD 02/00 Q1011 NOSIG
 
YSNF - Norfolk Island A, Australia
Distance from station: NW 1091km
Updated: 01/07/2022 20:00

 Wind from calm
Wind: Calm
Temperature: 15°C
Dew Point: 11°C
Humidity: 77%
Barometer: 1023 hPa
Visibility: 10 km
2022/07/01 08:00 YSNF 010800Z AUTO 00000KT 9999 // ////// 15/11 Q1023 RF00.0/000.0